sensor_id;sensor_type;location;lat;lon;timestamp;temperature;humidity
15930;DHT22;8064;51.142;4.780;2024-01-16T00:00:33;2.80;99.90
15930;DHT22;8064;51.142;4.780;2024-01-16T00:02:59;2.80;99.90
15930;DHT22;8064;51.142;4.780;2024-01-16T00:05:25;2.90;99.90
15930;DHT22;8064;51.142;4.780;2024-01-16T00:07:51;2.90;99.90
15930;DHT22;8064;51.142;4.780;2024-01-16T00:10:17;2.90;99.90
15930;DHT22;8064;51.142;4.780;2024-01-16T00:12:42;2.90;99.90
15930;DHT22;8064;51.142;4.780;2024-01-16T00:15:08;2.90;99.90
15930;DHT22;8064;51.142;4.780;2024-01-16T00:17:35;3.00;99.90
15930;DHT22;8064;51.142;4.780;2024-01-16T00:20:01;3.00;99.90
15930;DHT22;8064;51.142;4.780;2024-01-16T00:22:27;3.00;99.90
15930;DHT22;8064;51.142;4.780;2024-01-16T00:24:53;3.00;99.90
15930;DHT22;8064;51.142;4.780;2024-01-16T00:27:19;3.00;99.90
15930;DHT22;8064;51.142;4.780;2024-01-16T00:29:45;3.00;99.90
15930;DHT22;8064;51.142;4.780;2024-01-16T00:32:11;3.00;99.90
15930;DHT22;8064;51.142;4.780;2024-01-16T00:34:41;3.00;99.90
15930;DHT22;8064;51.142;4.780;2024-01-16T00:37:07;3.00;99.90
15930;DHT22;8064;51.142;4.780;2024-01-16T00:39:33;3.00;99.90
15930;DHT22;8064;51.142;4.780;2024-01-16T00:42:01;3.00;99.90
15930;DHT22;8064;51.142;4.780;2024-01-16T00:44:27;3.00;99.90
15930;DHT22;8064;51.142;4.780;2024-01-16T00:46:52;3.00;99.90
15930;DHT22;8064;51.142;4.780;2024-01-16T00:49:18;3.00;99.90
15930;DHT22;8064;51.142;4.780;2024-01-16T00:51:44;3.00;99.90
15930;DHT22;8064;51.142;4.780;2024-01-16T00:54:10;3.00;99.90
15930;DHT22;8064;51.142;4.780;2024-01-16T00:56:36;3.00;99.90
15930;DHT22;8064;51.142;4.780;2024-01-16T00:59:02;3.00;99.90
15930;DHT22;8064;51.142;4.780;2024-01-16T01:01:28;3.00;99.90
15930;DHT22;8064;51.142;4.780;2024-01-16T01:03:54;3.00;99.90
15930;DHT22;8064;51.142;4.780;2024-01-16T01:06:20;3.00;99.90
15930;DHT22;8064;51.142;4.780;2024-01-16T01:08:46;3.00;99.90
15930;DHT22;8064;51.142;4.780;2024-01-16T01:11:12;3.00;99.90
15930;DHT22;8064;51.142;4.780;2024-01-16T01:13:38;3.00;99.90
15930;DHT22;8064;51.142;4.780;2024-01-16T01:16:04;3.00;99.90
15930;DHT22;8064;51.142;4.780;2024-01-16T01:18:30;3.00;99.90
15930;DHT22;8064;51.142;4.780;2024-01-16T01:20:55;3.00;99.90
15930;DHT22;8064;51.142;4.780;2024-01-16T01:23:22;3.00;99.90
15930;DHT22;8064;51.142;4.780;2024-01-16T01:25:47;3.00;99.90
15930;DHT22;8064;51.142;4.780;2024-01-16T01:28:13;2.90;99.90
15930;DHT22;8064;51.142;4.780;2024-01-16T01:30:39;2.90;99.90
15930;DHT22;8064;51.142;4.780;2024-01-16T01:33:05;2.90;99.90
15930;DHT22;8064;51.142;4.780;2024-01-16T01:35:31;2.90;99.90
15930;DHT22;8064;51.142;4.780;2024-01-16T01:37:57;2.90;99.90
15930;DHT22;8064;51.142;4.780;2024-01-16T01:40:23;2.80;99.90
15930;DHT22;8064;51.142;4.780;2024-01-16T01:42:48;2.80;99.90
15930;DHT22;8064;51.142;4.780;2024-01-16T01:45:14;2.70;99.90
15930;DHT22;8064;51.142;4.780;2024-01-16T01:47:41;2.70;99.90
15930;DHT22;8064;51.142;4.780;2024-01-16T01:50:09;2.70;99.90
15930;DHT22;8064;51.142;4.780;2024-01-16T01:52:38;2.60;99.90
15930;DHT22;8064;51.142;4.780;2024-01-16T01:55:05;2.50;99.90
15930;DHT22;8064;51.142;4.780;2024-01-16T01:57:33;2.50;99.90
15930;DHT22;8064;51.142;4.780;2024-01-16T02:00:00;2.40;99.90
15930;DHT22;8064;51.142;4.780;2024-01-16T02:02:27;2.40;99.90
15930;DHT22;8064;51.142;4.780;2024-01-16T02:04:53;2.30;99.90
15930;DHT22;8064;51.142;4.780;2024-01-16T02:07:19;2.30;99.90
15930;DHT22;8064;51.142;4.780;2024-01-16T02:09:45;2.20;99.90
15930;DHT22;8064;51.142;4.780;2024-01-16T02:12:10;2.20;99.90
15930;DHT22;8064;51.142;4.780;2024-01-16T02:14:36;2.10;99.90
15930;DHT22;8064;51.142;4.780;2024-01-16T02:17:02;2.10;99.90
15930;DHT22;8064;51.142;4.780;2024-01-16T02:19:28;2.00;99.90
15930;DHT22;8064;51.142;4.780;2024-01-16T02:21:59;2.00;99.90
15930;DHT22;8064;51.142;4.780;2024-01-16T02:24:25;2.00;99.90
15930;DHT22;8064;51.142;4.780;2024-01-16T02:26:51;1.90;99.90
15930;DHT22;8064;51.142;4.780;2024-01-16T02:29:16;1.90;99.90
15930;DHT22;8064;51.142;4.780;2024-01-16T02:31:43;1.80;99.90
15930;DHT22;8064;51.142;4.780;2024-01-16T02:34:09;1.80;99.90
15930;DHT22;8064;51.142;4.780;2024-01-16T02:36:34;1.70;99.90
15930;DHT22;8064;51.142;4.780;2024-01-16T02:39:00;1.70;99.90
15930;DHT22;8064;51.142;4.780;2024-01-16T02:41:26;1.70;99.90
15930;DHT22;8064;51.142;4.780;2024-01-16T02:43:52;1.70;99.90
15930;DHT22;8064;51.142;4.780;2024-01-16T02:46:18;1.60;99.90
15930;DHT22;8064;51.142;4.780;2024-01-16T02:48:44;1.60;99.90
15930;DHT22;8064;51.142;4.780;2024-01-16T02:51:10;1.60;99.90
15930;DHT22;8064;51.142;4.780;2024-01-16T02:53:36;1.50;99.90
15930;DHT22;8064;51.142;4.780;2024-01-16T02:56:02;1.60;99.90
15930;DHT22;8064;51.142;4.780;2024-01-16T02:58:29;1.50;99.90
15930;DHT22;8064;51.142;4.780;2024-01-16T03:00:56;1.50;99.90
15930;DHT22;8064;51.142;4.780;2024-01-16T03:03:23;1.50;99.90
15930;DHT22;8064;51.142;4.780;2024-01-16T03:05:50;1.50;99.90
15930;DHT22;8064;51.142;4.780;2024-01-16T03:08:15;1.40;99.90
15930;DHT22;8064;51.142;4.780;2024-01-16T03:10:41;1.40;99.90
15930;DHT22;8064;51.142;4.780;2024-01-16T03:13:07;1.40;99.90
15930;DHT22;8064;51.142;4.780;2024-01-16T03:15:33;1.30;99.90
15930;DHT22;8064;51.142;4.780;2024-01-16T03:17:59;1.40;99.90
15930;DHT22;8064;51.142;4.780;2024-01-16T03:20:27;1.30;99.90
15930;DHT22;8064;51.142;4.780;2024-01-16T03:22:52;1.30;99.90
15930;DHT22;8064;51.142;4.780;2024-01-16T03:25:19;1.30;99.90
15930;DHT22;8064;51.142;4.780;2024-01-16T03:27:45;1.30;99.90
15930;DHT22;8064;51.142;4.780;2024-01-16T03:30:11;1.30;99.90
15930;DHT22;8064;51.142;4.780;2024-01-16T03:32:38;1.30;99.90
15930;DHT22;8064;51.142;4.780;2024-01-16T03:35:05;1.30;99.90
15930;DHT22;8064;51.142;4.780;2024-01-16T03:37:31;1.20;99.90
15930;DHT22;8064;51.142;4.780;2024-01-16T03:39:57;1.30;99.90
15930;DHT22;8064;51.142;4.780;2024-01-16T03:42:23;1.20;99.90
15930;DHT22;8064;51.142;4.780;2024-01-16T03:44:49;1.20;99.90
15930;DHT22;8064;51.142;4.780;2024-01-16T03:47:15;1.20;99.90
15930;DHT22;8064;51.142;4.780;2024-01-16T03:49:41;1.20;99.90
15930;DHT22;8064;51.142;4.780;2024-01-16T03:52:07;1.20;99.90
15930;DHT22;8064;51.142;4.780;2024-01-16T03:54:33;1.10;99.90
15930;DHT22;8064;51.142;4.780;2024-01-16T03:56:58;1.10;99.90
15930;DHT22;8064;51.142;4.780;2024-01-16T03:59:24;1.10;99.90
15930;DHT22;8064;51.142;4.780;2024-01-16T04:01:50;1.10;99.90
15930;DHT22;8064;51.142;4.780;2024-01-16T04:04:16;1.00;99.90
15930;DHT22;8064;51.142;4.780;2024-01-16T04:06:42;1.00;99.90
15930;DHT22;8064;51.142;4.780;2024-01-16T04:09:08;1.00;99.90
15930;DHT22;8064;51.142;4.780;2024-01-16T04:11:35;1.00;99.90
15930;DHT22;8064;51.142;4.780;2024-01-16T04:14:01;1.00;99.90
15930;DHT22;8064;51.142;4.780;2024-01-16T04:16:27;0.90;99.90
15930;DHT22;8064;51.142;4.780;2024-01-16T04:18:53;0.90;99.90
15930;DHT22;8064;51.142;4.780;2024-01-16T04:21:19;0.90;99.90
15930;DHT22;8064;51.142;4.780;2024-01-16T04:23:45;0.90;99.90
15930;DHT22;8064;51.142;4.780;2024-01-16T04:26:11;0.90;99.90
15930;DHT22;8064;51.142;4.780;2024-01-16T04:28:37;0.90;99.90
15930;DHT22;8064;51.142;4.780;2024-01-16T04:31:03;0.90;99.90
15930;DHT22;8064;51.142;4.780;2024-01-16T04:33:29;0.90;99.90
15930;DHT22;8064;51.142;4.780;2024-01-16T04:35:56;0.90;99.90
15930;DHT22;8064;51.142;4.780;2024-01-16T04:38:22;0.90;99.90
15930;DHT22;8064;51.142;4.780;2024-01-16T04:40:47;0.90;99.90
15930;DHT22;8064;51.142;4.780;2024-01-16T04:43:13;0.90;99.90
15930;DHT22;8064;51.142;4.780;2024-01-16T04:45:39;0.90;99.90
15930;DHT22;8064;51.142;4.780;2024-01-16T04:48:05;0.90;99.90
15930;DHT22;8064;51.142;4.780;2024-01-16T04:50:31;0.90;99.90
15930;DHT22;8064;51.142;4.780;2024-01-16T04:52:58;0.90;99.90
15930;DHT22;8064;51.142;4.780;2024-01-16T04:55:26;0.90;99.90
15930;DHT22;8064;51.142;4.780;2024-01-16T04:57:52;0.90;99.90
15930;DHT22;8064;51.142;4.780;2024-01-16T05:00:18;0.90;99.90
15930;DHT22;8064;51.142;4.780;2024-01-16T05:02:44;0.90;99.90
15930;DHT22;8064;51.142;4.780;2024-01-16T05:05:10;0.90;99.90
15930;DHT22;8064;51.142;4.780;2024-01-16T05:07:35;0.80;99.90
15930;DHT22;8064;51.142;4.780;2024-01-16T05:10:02;0.80;99.90
15930;DHT22;8064;51.142;4.780;2024-01-16T05:12:28;0.80;99.90
15930;DHT22;8064;51.142;4.780;2024-01-16T05:14:53;0.80;99.90
15930;DHT22;8064;51.142;4.780;2024-01-16T05:17:19;0.80;99.90
15930;DHT22;8064;51.142;4.780;2024-01-16T05:19:45;0.80;99.90
15930;DHT22;8064;51.142;4.780;2024-01-16T05:22:11;0.80;99.90
15930;DHT22;8064;51.142;4.780;2024-01-16T05:24:36;0.80;99.90
15930;DHT22;8064;51.142;4.780;2024-01-16T05:27:02;0.80;99.90
15930;DHT22;8064;51.142;4.780;2024-01-16T05:29:30;0.70;99.90
15930;DHT22;8064;51.142;4.780;2024-01-16T05:31:56;0.80;99.90
15930;DHT22;8064;51.142;4.780;2024-01-16T05:34:22;0.70;99.90
15930;DHT22;8064;51.142;4.780;2024-01-16T05:36:48;0.70;99.90
15930;DHT22;8064;51.142;4.780;2024-01-16T05:39:14;0.70;99.90
15930;DHT22;8064;51.142;4.780;2024-01-16T05:41:40;0.70;99.90
15930;DHT22;8064;51.142;4.780;2024-01-16T05:44:06;0.70;99.90
15930;DHT22;8064;51.142;4.780;2024-01-16T05:46:32;0.60;99.90
15930;DHT22;8064;51.142;4.780;2024-01-16T05:48:57;0.60;99.90
15930;DHT22;8064;51.142;4.780;2024-01-16T05:51:24;0.60;99.90
15930;DHT22;8064;51.142;4.780;2024-01-16T05:53:51;0.60;99.90
15930;DHT22;8064;51.142;4.780;2024-01-16T05:56:16;0.60;99.90
15930;DHT22;8064;51.142;4.780;2024-01-16T05:58:42;0.60;99.90
15930;DHT22;8064;51.142;4.780;2024-01-16T06:01:08;0.50;99.90
15930;DHT22;8064;51.142;4.780;2024-01-16T06:03:34;0.60;99.90
15930;DHT22;8064;51.142;4.780;2024-01-16T06:05:59;0.50;99.90
15930;DHT22;8064;51.142;4.780;2024-01-16T06:08:28;0.50;99.90
15930;DHT22;8064;51.142;4.780;2024-01-16T06:10:55;0.50;99.90
15930;DHT22;8064;51.142;4.780;2024-01-16T06:13:21;0.50;99.90
15930;DHT22;8064;51.142;4.780;2024-01-16T06:15:47;0.50;99.90
15930;DHT22;8064;51.142;4.780;2024-01-16T06:18:13;0.50;99.90
15930;DHT22;8064;51.142;4.780;2024-01-16T06:20:39;0.50;99.90
15930;DHT22;8064;51.142;4.780;2024-01-16T06:23:05;0.50;99.90
15930;DHT22;8064;51.142;4.780;2024-01-16T06:25:31;0.50;99.90
15930;DHT22;8064;51.142;4.780;2024-01-16T06:27:56;0.50;99.90
15930;DHT22;8064;51.142;4.780;2024-01-16T06:30:22;0.50;99.90
15930;DHT22;8064;51.142;4.780;2024-01-16T06:32:49;0.50;99.90
15930;DHT22;8064;51.142;4.780;2024-01-16T06:35:16;0.50;99.90
15930;DHT22;8064;51.142;4.780;2024-01-16T06:37:42;0.50;99.90
15930;DHT22;8064;51.142;4.780;2024-01-16T06:40:09;0.50;99.90
15930;DHT22;8064;51.142;4.780;2024-01-16T06:42:36;0.50;99.90
15930;DHT22;8064;51.142;4.780;2024-01-16T06:45:03;0.50;99.90
15930;DHT22;8064;51.142;4.780;2024-01-16T06:47:28;0.50;99.90
15930;DHT22;8064;51.142;4.780;2024-01-16T06:49:54;0.50;99.90
15930;DHT22;8064;51.142;4.780;2024-01-16T06:52:20;0.50;99.90
15930;DHT22;8064;51.142;4.780;2024-01-16T06:54:46;0.50;99.90
15930;DHT22;8064;51.142;4.780;2024-01-16T06:57:11;0.50;99.90
15930;DHT22;8064;51.142;4.780;2024-01-16T06:59:37;0.60;99.90
15930;DHT22;8064;51.142;4.780;2024-01-16T07:02:03;0.60;99.90
15930;DHT22;8064;51.142;4.780;2024-01-16T07:04:29;0.60;99.90
15930;DHT22;8064;51.142;4.780;2024-01-16T07:06:55;0.60;99.90
15930;DHT22;8064;51.142;4.780;2024-01-16T07:09:21;0.60;99.90
15930;DHT22;8064;51.142;4.780;2024-01-16T07:11:47;0.60;99.90
15930;DHT22;8064;51.142;4.780;2024-01-16T07:14:13;0.60;99.90
15930;DHT22;8064;51.142;4.780;2024-01-16T07:16:39;0.60;99.90
15930;DHT22;8064;51.142;4.780;2024-01-16T07:19:04;0.70;99.90
15930;DHT22;8064;51.142;4.780;2024-01-16T07:21:30;0.70;99.90
15930;DHT22;8064;51.142;4.780;2024-01-16T07:23:56;0.70;99.90
15930;DHT22;8064;51.142;4.780;2024-01-16T07:26:24;0.70;99.90
15930;DHT22;8064;51.142;4.780;2024-01-16T07:28:49;0.70;99.90
15930;DHT22;8064;51.142;4.780;2024-01-16T07:31:15;0.70;99.90
15930;DHT22;8064;51.142;4.780;2024-01-16T07:33:43;0.70;99.90
15930;DHT22;8064;51.142;4.780;2024-01-16T07:36:09;0.70;99.90
15930;DHT22;8064;51.142;4.780;2024-01-16T07:38:35;0.70;99.90
15930;DHT22;8064;51.142;4.780;2024-01-16T07:41:03;0.70;99.90
15930;DHT22;8064;51.142;4.780;2024-01-16T07:43:29;0.70;99.90
15930;DHT22;8064;51.142;4.780;2024-01-16T07:45:55;0.80;99.90
15930;DHT22;8064;51.142;4.780;2024-01-16T07:48:21;0.70;99.90
15930;DHT22;8064;51.142;4.780;2024-01-16T07:50:48;0.70;99.90
15930;DHT22;8064;51.142;4.780;2024-01-16T07:53:14;0.70;99.90
15930;DHT22;8064;51.142;4.780;2024-01-16T07:55:41;0.80;99.90
15930;DHT22;8064;51.142;4.780;2024-01-16T07:58:07;0.80;99.90
15930;DHT22;8064;51.142;4.780;2024-01-16T08:00:33;0.80;99.90
15930;DHT22;8064;51.142;4.780;2024-01-16T08:02:58;0.80;99.90
15930;DHT22;8064;51.142;4.780;2024-01-16T08:05:24;0.80;99.90
15930;DHT22;8064;51.142;4.780;2024-01-16T08:07:53;0.90;99.90
15930;DHT22;8064;51.142;4.780;2024-01-16T08:10:19;0.90;99.90
15930;DHT22;8064;51.142;4.780;2024-01-16T08:12:45;0.90;99.90
15930;DHT22;8064;51.142;4.780;2024-01-16T08:15:11;0.90;99.90
15930;DHT22;8064;51.142;4.780;2024-01-16T08:17:36;0.90;99.90
15930;DHT22;8064;51.142;4.780;2024-01-16T08:20:02;0.90;99.90
15930;DHT22;8064;51.142;4.780;2024-01-16T08:22:29;1.00;99.90
15930;DHT22;8064;51.142;4.780;2024-01-16T08:24:55;1.00;99.90
15930;DHT22;8064;51.142;4.780;2024-01-16T08:27:20;1.00;99.90
15930;DHT22;8064;51.142;4.780;2024-01-16T08:29:46;1.00;99.90
15930;DHT22;8064;51.142;4.780;2024-01-16T08:32:16;1.00;99.90
15930;DHT22;8064;51.142;4.780;2024-01-16T08:34:42;1.10;99.90
15930;DHT22;8064;51.142;4.780;2024-01-16T08:37:08;1.10;99.90
15930;DHT22;8064;51.142;4.780;2024-01-16T08:39:35;1.10;99.90
15930;DHT22;8064;51.142;4.780;2024-01-16T08:42:00;1.10;99.90
15930;DHT22;8064;51.142;4.780;2024-01-16T08:44:28;1.20;99.90
15930;DHT22;8064;51.142;4.780;2024-01-16T08:46:54;1.20;99.90
15930;DHT22;8064;51.142;4.780;2024-01-16T08:49:20;1.20;99.90
15930;DHT22;8064;51.142;4.780;2024-01-16T08:51:46;1.20;99.90
15930;DHT22;8064;51.142;4.780;2024-01-16T08:54:11;1.20;99.90
15930;DHT22;8064;51.142;4.780;2024-01-16T08:56:37;1.20;99.90
15930;DHT22;8064;51.142;4.780;2024-01-16T08:59:03;1.20;99.90
15930;DHT22;8064;51.142;4.780;2024-01-16T09:01:28;1.20;99.90
15930;DHT22;8064;51.142;4.780;2024-01-16T09:03:54;1.20;99.90
15930;DHT22;8064;51.142;4.780;2024-01-16T09:06:20;1.20;99.90
15930;DHT22;8064;51.142;4.780;2024-01-16T09:08:47;1.20;99.90
15930;DHT22;8064;51.142;4.780;2024-01-16T09:11:12;1.30;99.90
15930;DHT22;8064;51.142;4.780;2024-01-16T09:13:38;1.30;99.90
15930;DHT22;8064;51.142;4.780;2024-01-16T09:16:04;1.40;99.90
15930;DHT22;8064;51.142;4.780;2024-01-16T09:18:30;1.60;99.90
15930;DHT22;8064;51.142;4.780;2024-01-16T09:20:56;1.80;99.90
15930;DHT22;8064;51.142;4.780;2024-01-16T09:23:22;2.00;99.90
15930;DHT22;8064;51.142;4.780;2024-01-16T09:25:48;2.50;99.90
15930;DHT22;8064;51.142;4.780;2024-01-16T09:28:14;3.80;99.90
15930;DHT22;8064;51.142;4.780;2024-01-16T09:30:41;5.50;99.90
15930;DHT22;8064;51.142;4.780;2024-01-16T09:33:07;6.10;99.90
15930;DHT22;8064;51.142;4.780;2024-01-16T09:35:36;6.70;99.90
15930;DHT22;8064;51.142;4.780;2024-01-16T09:38:03;7.40;99.90
15930;DHT22;8064;51.142;4.780;2024-01-16T09:40:30;7.60;99.90
15930;DHT22;8064;51.142;4.780;2024-01-16T09:42:56;7.90;99.90
15930;DHT22;8064;51.142;4.780;2024-01-16T09:45:22;9.70;99.60
15930;DHT22;8064;51.142;4.780;2024-01-16T09:47:50;11.40;96.60
15930;DHT22;8064;51.142;4.780;2024-01-16T09:50:17;12.80;93.60
15930;DHT22;8064;51.142;4.780;2024-01-16T09:52:45;13.90;91.60
15930;DHT22;8064;51.142;4.780;2024-01-16T09:55:12;14.30;90.00
15930;DHT22;8064;51.142;4.780;2024-01-16T09:57:40;14.40;88.20
15930;DHT22;8064;51.142;4.780;2024-01-16T10:00:08;14.10;87.60
15930;DHT22;8064;51.142;4.780;2024-01-16T10:02:41;14.00;86.90
15930;DHT22;8064;51.142;4.780;2024-01-16T10:05:09;14.50;84.30
15930;DHT22;8064;51.142;4.780;2024-01-16T10:07:37;15.50;79.60
15930;DHT22;8064;51.142;4.780;2024-01-16T10:10:05;16.60;75.60
15930;DHT22;8064;51.142;4.780;2024-01-16T10:12:31;17.50;72.70
15930;DHT22;8064;51.142;4.780;2024-01-16T10:14:57;18.50;70.30
15930;DHT22;8064;51.142;4.780;2024-01-16T10:17:35;19.50;67.90
15930;DHT22;8064;51.142;4.780;2024-01-16T10:20:02;20.50;63.20
15930;DHT22;8064;51.142;4.780;2024-01-16T10:22:30;21.50;61.10
15930;DHT22;8064;51.142;4.780;2024-01-16T10:25:11;22.40;58.50
15930;DHT22;8064;51.142;4.780;2024-01-16T10:27:42;23.30;55.20
15930;DHT22;8064;51.142;4.780;2024-01-16T10:30:08;24.30;55.40
15930;DHT22;8064;51.142;4.780;2024-01-16T10:32:35;25.20;52.70
15930;DHT22;8064;51.142;4.780;2024-01-16T10:35:09;25.90;51.10
15930;DHT22;8064;51.142;4.780;2024-01-16T10:37:51;26.70;49.60
15930;DHT22;8064;51.142;4.780;2024-01-16T10:40:18;27.50;46.20
15930;DHT22;8064;51.142;4.780;2024-01-16T10:42:46;27.70;45.50
15930;DHT22;8064;51.142;4.780;2024-01-16T10:45:18;28.00;44.00
15930;DHT22;8064;51.142;4.780;2024-01-16T10:47:46;28.30;42.80
15930;DHT22;8064;51.142;4.780;2024-01-16T10:50:12;28.70;43.00
15930;DHT22;8064;51.142;4.780;2024-01-16T10:52:46;29.00;42.70
15930;DHT22;8064;51.142;4.780;2024-01-16T10:55:19;29.40;41.20
15930;DHT22;8064;51.142;4.780;2024-01-16T10:57:45;29.90;41.10
15930;DHT22;8064;51.142;4.780;2024-01-16T11:00:12;30.10;39.80
15930;DHT22;8064;51.142;4.780;2024-01-16T11:02:43;30.00;38.10
15930;DHT22;8064;51.142;4.780;2024-01-16T11:05:16;29.90;37.60
15930;DHT22;8064;51.142;4.780;2024-01-16T11:07:42;30.00;37.70
15930;DHT22;8064;51.142;4.780;2024-01-16T11:10:10;30.30;38.30
15930;DHT22;8064;51.142;4.780;2024-01-16T11:12:38;30.60;37.00
15930;DHT22;8064;51.142;4.780;2024-01-16T11:15:07;30.90;36.70
15930;DHT22;8064;51.142;4.780;2024-01-16T11:17:34;31.20;37.20
15930;DHT22;8064;51.142;4.780;2024-01-16T11:20:01;31.60;36.80
15930;DHT22;8064;51.142;4.780;2024-01-16T11:22:31;31.70;36.20
15930;DHT22;8064;51.142;4.780;2024-01-16T11:25:11;31.60;34.90
15930;DHT22;8064;51.142;4.780;2024-01-16T11:27:40;31.40;34.00
15930;DHT22;8064;51.142;4.780;2024-01-16T11:30:08;31.20;35.30
15930;DHT22;8064;51.142;4.780;2024-01-16T11:32:36;30.80;33.80
15930;DHT22;8064;51.142;4.780;2024-01-16T11:35:03;30.40;34.00
15930;DHT22;8064;51.142;4.780;2024-01-16T11:37:30;30.00;34.40
15930;DHT22;8064;51.142;4.780;2024-01-16T11:42:43;29.50;35.00
15930;DHT22;8064;51.142;4.780;2024-01-16T11:48:10;29.80;34.50
15930;DHT22;8064;51.142;4.780;2024-01-16T11:50:39;29.80;34.60
15930;DHT22;8064;51.142;4.780;2024-01-16T11:53:05;29.60;35.90
15930;DHT22;8064;51.142;4.780;2024-01-16T11:55:34;29.50;35.40
15930;DHT22;8064;51.142;4.780;2024-01-16T11:58:43;27.00;35.40
15930;DHT22;8064;51.142;4.780;2024-01-16T12:01:11;25.10;36.40
15930;DHT22;8064;51.142;4.780;2024-01-16T12:03:37;24.10;38.20
15930;DHT22;8064;51.142;4.780;2024-01-16T12:06:03;23.50;38.60
15930;DHT22;8064;51.142;4.780;2024-01-16T12:08:32;22.50;39.60
15930;DHT22;8064;51.142;4.780;2024-01-16T12:10:57;21.10;40.30
15930;DHT22;8064;51.142;4.780;2024-01-16T12:13:25;20.10;41.70
15930;DHT22;8064;51.142;4.780;2024-01-16T12:16:07;19.40;42.90
15930;DHT22;8064;51.142;4.780;2024-01-16T12:18:32;19.10;43.20
15930;DHT22;8064;51.142;4.780;2024-01-16T12:21:08;18.70;43.60
15930;DHT22;8064;51.142;4.780;2024-01-16T12:23:34;18.00;43.00
15930;DHT22;8064;51.142;4.780;2024-01-16T12:26:00;17.80;43.90
15930;DHT22;8064;51.142;4.780;2024-01-16T12:28:28;18.50;43.60
15930;DHT22;8064;51.142;4.780;2024-01-16T12:30:54;19.00;42.70
15930;DHT22;8064;51.142;4.780;2024-01-16T12:33:22;19.30;42.30
15930;DHT22;8064;51.142;4.780;2024-01-16T12:35:48;19.80;41.50
15930;DHT22;8064;51.142;4.780;2024-01-16T12:38:14;19.90;42.20
15930;DHT22;8064;51.142;4.780;2024-01-16T12:40:42;19.20;42.80
15930;DHT22;8064;51.142;4.780;2024-01-16T12:43:09;17.70;43.90
15930;DHT22;8064;51.142;4.780;2024-01-16T12:45:35;17.50;45.30
15930;DHT22;8064;51.142;4.780;2024-01-16T12:48:02;18.30;45.10
15930;DHT22;8064;51.142;4.780;2024-01-16T12:50:30;18.80;43.50
15930;DHT22;8064;51.142;4.780;2024-01-16T12:55:27;18.60;42.90
15930;DHT22;8064;51.142;4.780;2024-01-16T12:58:12;17.90;43.80
15930;DHT22;8064;51.142;4.780;2024-01-16T13:00:38;17.80;44.10
15930;DHT22;8064;51.142;4.780;2024-01-16T13:03:06;17.60;44.60
15930;DHT22;8064;51.142;4.780;2024-01-16T13:05:31;17.20;45.10
15930;DHT22;8064;51.142;4.780;2024-01-16T13:08:00;16.90;44.90
15930;DHT22;8064;51.142;4.780;2024-01-16T13:10:28;15.70;45.20
15930;DHT22;8064;51.142;4.780;2024-01-16T13:15:38;13.40;47.60
15930;DHT22;8064;51.142;4.780;2024-01-16T13:18:04;12.50;48.80
15930;DHT22;8064;51.142;4.780;2024-01-16T13:20:30;11.70;50.00
15930;DHT22;8064;51.142;4.780;2024-01-16T13:22:56;11.20;50.60
15930;DHT22;8064;51.142;4.780;2024-01-16T13:25:21;10.80;51.20
15930;DHT22;8064;51.142;4.780;2024-01-16T13:27:47;10.30;52.00
15930;DHT22;8064;51.142;4.780;2024-01-16T13:30:13;9.70;53.40
15930;DHT22;8064;51.142;4.780;2024-01-16T13:32:40;9.20;54.20
15930;DHT22;8064;51.142;4.780;2024-01-16T13:35:06;8.90;55.00
15930;DHT22;8064;51.142;4.780;2024-01-16T13:37:35;8.70;55.60
15930;DHT22;8064;51.142;4.780;2024-01-16T13:40:06;8.80;56.10
15930;DHT22;8064;51.142;4.780;2024-01-16T13:42:44;9.40;56.50
15930;DHT22;8064;51.142;4.780;2024-01-16T13:45:10;10.50;55.30
15930;DHT22;8064;51.142;4.780;2024-01-16T13:47:39;11.60;54.60
15930;DHT22;8064;51.142;4.780;2024-01-16T13:50:07;12.40;54.00
15930;DHT22;8064;51.142;4.780;2024-01-16T13:52:34;13.30;53.30
15930;DHT22;8064;51.142;4.780;2024-01-16T13:55:00;14.20;52.50
15930;DHT22;8064;51.142;4.780;2024-01-16T13:57:28;15.20;51.90
15930;DHT22;8064;51.142;4.780;2024-01-16T13:59:54;15.80;51.30
15930;DHT22;8064;51.142;4.780;2024-01-16T14:02:19;16.00;51.40
15930;DHT22;8064;51.142;4.780;2024-01-16T14:04:45;16.10;49.70
15930;DHT22;8064;51.142;4.780;2024-01-16T14:07:11;16.10;49.70
15930;DHT22;8064;51.142;4.780;2024-01-16T14:09:36;16.00;49.80
15930;DHT22;8064;51.142;4.780;2024-01-16T14:12:02;16.20;50.00
15930;DHT22;8064;51.142;4.780;2024-01-16T14:14:28;16.50;49.60
15930;DHT22;8064;51.142;4.780;2024-01-16T14:16:54;16.60;48.60
15930;DHT22;8064;51.142;4.780;2024-01-16T14:19:20;16.50;48.50
15930;DHT22;8064;51.142;4.780;2024-01-16T14:21:46;16.50;48.60
15930;DHT22;8064;51.142;4.780;2024-01-16T14:24:13;16.50;48.20
15930;DHT22;8064;51.142;4.780;2024-01-16T14:26:42;16.20;48.30
15930;DHT22;8064;51.142;4.780;2024-01-16T14:29:09;15.80;48.40
15930;DHT22;8064;51.142;4.780;2024-01-16T14:31:35;15.30;48.50
15930;DHT22;8064;51.142;4.780;2024-01-16T14:34:01;14.90;48.90
15930;DHT22;8064;51.142;4.780;2024-01-16T14:36:29;14.60;49.40
15930;DHT22;8064;51.142;4.780;2024-01-16T14:38:55;14.40;49.40
15930;DHT22;8064;51.142;4.780;2024-01-16T14:41:21;14.10;49.50
15930;DHT22;8064;51.142;4.780;2024-01-16T14:43:48;13.60;50.00
15930;DHT22;8064;51.142;4.780;2024-01-16T14:46:13;13.00;50.50
15930;DHT22;8064;51.142;4.780;2024-01-16T14:48:45;12.20;51.20
15930;DHT22;8064;51.142;4.780;2024-01-16T14:51:11;11.60;52.10
15930;DHT22;8064;51.142;4.780;2024-01-16T14:53:37;10.90;52.40
15930;DHT22;8064;51.142;4.780;2024-01-16T14:56:03;10.30;53.00
15930;DHT22;8064;51.142;4.780;2024-01-16T14:58:30;9.70;54.80
15930;DHT22;8064;51.142;4.780;2024-01-16T15:00:56;9.10;55.30
15930;DHT22;8064;51.142;4.780;2024-01-16T15:03:24;8.70;56.10
15930;DHT22;8064;51.142;4.780;2024-01-16T15:05:50;8.40;56.80
15930;DHT22;8064;51.142;4.780;2024-01-16T15:08:22;8.30;57.30
15930;DHT22;8064;51.142;4.780;2024-01-16T15:10:48;8.20;57.60
15930;DHT22;8064;51.142;4.780;2024-01-16T15:13:14;8.00;57.70
15930;DHT22;8064;51.142;4.780;2024-01-16T15:15:40;7.90;58.00
15930;DHT22;8064;51.142;4.780;2024-01-16T15:18:07;7.80;58.40
15930;DHT22;8064;51.142;4.780;2024-01-16T15:20:34;7.70;58.60
15930;DHT22;8064;51.142;4.780;2024-01-16T15:23:03;7.60;58.80
15930;DHT22;8064;51.142;4.780;2024-01-16T15:25:29;7.60;59.20
15930;DHT22;8064;51.142;4.780;2024-01-16T15:27:55;7.70;59.30
15930;DHT22;8064;51.142;4.780;2024-01-16T15:30:21;7.70;59.50
15930;DHT22;8064;51.142;4.780;2024-01-16T15:32:48;7.80;59.60
15930;DHT22;8064;51.142;4.780;2024-01-16T15:35:14;7.90;59.70
15930;DHT22;8064;51.142;4.780;2024-01-16T15:37:41;8.00;59.70
15930;DHT22;8064;51.142;4.780;2024-01-16T15:40:08;7.90;59.80
15930;DHT22;8064;51.142;4.780;2024-01-16T15:42:34;7.80;60.10
15930;DHT22;8064;51.142;4.780;2024-01-16T15:45:02;7.70;60.40
15930;DHT22;8064;51.142;4.780;2024-01-16T15:47:28;7.50;60.60
15930;DHT22;8064;51.142;4.780;2024-01-16T15:49:55;7.40;61.10
15930;DHT22;8064;51.142;4.780;2024-01-16T15:52:21;7.20;61.40
15930;DHT22;8064;51.142;4.780;2024-01-16T15:54:46;7.00;61.90
15930;DHT22;8064;51.142;4.780;2024-01-16T15:57:12;6.80;62.40
15930;DHT22;8064;51.142;4.780;2024-01-16T15:59:38;6.60;62.80
15930;DHT22;8064;51.142;4.780;2024-01-16T16:02:05;6.40;63.10
15930;DHT22;8064;51.142;4.780;2024-01-16T16:04:31;6.20;63.50